sensor_id;sensor_type;location;lat;lon;timestamp;P1;durP1;ratioP1;P2;durP2;ratioP2
18399;SDS011;9326;49.468;11.008;2023-06-26T05:01:21;8.83;;;7.50;;
18399;SDS011;9326;49.468;11.008;2023-06-26T05:03:48;8.93;;;7.10;;
18399;SDS011;9326;49.468;11.008;2023-06-26T05:06:15;8.60;;;6.90;;
18399;SDS011;9326;49.468;11.008;2023-06-26T05:08:42;9.43;;;7.07;;
18399;SDS011;9326;49.468;11.008;2023-06-26T05:11:09;8.53;;;7.70;;
18399;SDS011;9326;49.468;11.008;2023-06-26T05:13:36;8.43;;;6.83;;
18399;SDS011;9326;49.468;11.008;2023-06-26T05:16:03;7.73;;;6.93;;
18399;SDS011;9326;49.468;11.008;2023-06-26T05:18:32;8.20;;;6.60;;
18399;SDS011;9326;49.468;11.008;2023-06-26T05:20:59;7.60;;;6.70;;
18399;SDS011;9326;49.468;11.008;2023-06-26T05:23:26;10.33;;;7.03;;
18399;SDS011;9326;49.468;11.008;2023-06-26T05:25:53;7.53;;;6.70;;
18399;SDS011;9326;49.468;11.008;2023-06-26T05:28:21;7.60;;;6.90;;
18399;SDS011;9326;49.468;11.008;2023-06-26T05:30:49;7.53;;;6.07;;
18399;SDS011;9326;49.468;11.008;2023-06-26T05:33:17;7.90;;;6.20;;
18399;SDS011;9326;49.468;11.008;2023-06-26T05:35:46;9.73;;;6.93;;
18399;SDS011;9326;49.468;11.008;2023-06-26T05:38:15;9.83;;;7.07;;
18399;SDS011;9326;49.468;11.008;2023-06-26T05:40:42;9.10;;;6.77;;
18399;SDS011;9326;49.468;11.008;2023-06-26T05:43:09;9.30;;;6.27;;
18399;SDS011;9326;49.468;11.008;2023-06-26T05:45:36;8.50;;;7.17;;
18399;SDS011;9326;49.468;11.008;2023-06-26T05:48:04;6.67;;;5.97;;
18399;SDS011;9326;49.468;11.008;2023-06-26T05:50:31;10.47;;;6.73;;
18399;SDS011;9326;49.468;11.008;2023-06-26T05:53:00;7.13;;;6.40;;
18399;SDS011;9326;49.468;11.008;2023-06-26T05:55:28;6.77;;;6.17;;
18399;SDS011;9326;49.468;11.008;2023-06-26T05:57:55;11.33;;;6.30;;
18399;SDS011;9326;49.468;11.008;2023-06-26T06:00:25;9.70;;;6.83;;
18399;SDS011;9326;49.468;11.008;2023-06-26T06:02:52;10.00;;;6.57;;
18399;SDS011;9326;49.468;11.008;2023-06-26T06:05:19;8.33;;;6.87;;
18399;SDS011;9326;49.468;11.008;2023-06-26T06:07:46;10.80;;;6.93;;
18399;SDS011;9326;49.468;11.008;2023-06-26T06:10:15;8.37;;;7.10;;
18399;SDS011;9326;49.468;11.008;2023-06-26T06:12:42;8.17;;;6.50;;
18399;SDS011;9326;49.468;11.008;2023-06-26T06:15:10;15.63;;;7.23;;
18399;SDS011;9326;49.468;11.008;2023-06-26T06:17:37;8.20;;;6.70;;
18399;SDS011;9326;49.468;11.008;2023-06-26T06:20:04;10.37;;;6.63;;
18399;SDS011;9326;49.468;11.008;2023-06-26T06:22:32;10.27;;;6.80;;
18399;SDS011;9326;49.468;11.008;2023-06-26T06:24:59;9.23;;;6.90;;
18399;SDS011;9326;49.468;11.008;2023-06-26T06:27:27;8.33;;;6.47;;
18399;SDS011;9326;49.468;11.008;2023-06-26T06:29:55;8.17;;;6.20;;
18399;SDS011;9326;49.468;11.008;2023-06-26T06:32:22;9.27;;;6.20;;
18399;SDS011;9326;49.468;11.008;2023-06-26T06:34:49;8.23;;;7.00;;
18399;SDS011;9326;49.468;11.008;2023-06-26T06:37:16;7.13;;;6.43;;
18399;SDS011;9326;49.468;11.008;2023-06-26T06:39:43;9.60;;;6.83;;
18399;SDS011;9326;49.468;11.008;2023-06-26T06:42:11;7.27;;;6.43;;
18399;SDS011;9326;49.468;11.008;2023-06-26T06:44:39;10.57;;;7.07;;
18399;SDS011;9326;49.468;11.008;2023-06-26T06:47:06;7.30;;;6.60;;
18399;SDS011;9326;49.468;11.008;2023-06-26T06:49:33;7.47;;;6.33;;
18399;SDS011;9326;49.468;11.008;2023-06-26T06:52:00;8.47;;;6.30;;
18399;SDS011;9326;49.468;11.008;2023-06-26T06:54:27;7.10;;;6.27;;
18399;SDS011;9326;49.468;11.008;2023-06-26T06:56:54;8.80;;;6.30;;
18399;SDS011;9326;49.468;11.008;2023-06-26T06:59:21;7.33;;;6.57;;
18399;SDS011;9326;49.468;11.008;2023-06-26T07:01:50;7.07;;;6.23;;
18399;SDS011;9326;49.468;11.008;2023-06-26T07:04:17;6.23;;;5.63;;
18399;SDS011;9326;49.468;11.008;2023-06-26T07:06:44;8.60;;;6.40;;
18399;SDS011;9326;49.468;11.008;2023-06-26T07:09:11;8.97;;;6.60;;
18399;SDS011;9326;49.468;11.008;2023-06-26T07:11:38;7.30;;;6.60;;
18399;SDS011;9326;49.468;11.008;2023-06-26T07:14:05;8.57;;;6.90;;
18399;SDS011;9326;49.468;11.008;2023-06-26T07:16:32;7.60;;;6.87;;
18399;SDS011;9326;49.468;11.008;2023-06-26T07:19:00;6.90;;;6.23;;
18399;SDS011;9326;49.468;11.008;2023-06-26T07:21:27;7.37;;;6.27;;
18399;SDS011;9326;49.468;11.008;2023-06-26T07:23:54;7.10;;;6.40;;
18399;SDS011;9326;49.468;11.008;2023-06-26T07:26:21;9.37;;;6.60;;
18399;SDS011;9326;49.468;11.008;2023-06-26T07:28:48;7.07;;;6.37;;
18399;SDS011;9326;49.468;11.008;2023-06-26T07:31:15;7.27;;;6.57;;
18399;SDS011;9326;49.468;11.008;2023-06-26T07:33:42;7.03;;;6.43;;
18399;SDS011;9326;49.468;11.008;2023-06-26T07:36:11;7.07;;;6.38;;
18399;SDS011;9326;49.468;11.008;2023-06-26T07:38:38;8.10;;;6.47;;
18399;SDS011;9326;49.468;11.008;2023-06-26T07:41:05;6.88;;;6.28;;
18399;SDS011;9326;49.468;11.008;2023-06-26T07:43:32;7.45;;;6.68;;
18399;SDS011;9326;49.468;11.008;2023-06-26T07:45:59;7.97;;;7.18;;
18399;SDS011;9326;49.468;11.008;2023-06-26T07:48:26;7.55;;;6.85;;
18399;SDS011;9326;49.468;11.008;2023-06-26T07:50:53;7.00;;;6.32;;
18399;SDS011;9326;49.468;11.008;2023-06-26T07:53:22;7.22;;;6.53;;
18399;SDS011;9326;49.468;11.008;2023-06-26T07:55:49;6.90;;;6.30;;
18399;SDS011;9326;49.468;11.008;2023-06-26T07:58:16;6.88;;;6.28;;
18399;SDS011;9326;49.468;11.008;2023-06-26T08:00:43;7.38;;;6.55;;
18399;SDS011;9326;49.468;11.008;2023-06-26T08:03:10;7.38;;;6.30;;
18399;SDS011;9326;49.468;11.008;2023-06-26T08:05:37;7.15;;;6.55;;
18399;SDS011;9326;49.468;11.008;2023-06-26T08:08:04;7.72;;;6.93;;
18399;SDS011;9326;49.468;11.008;2023-06-26T08:10:33;7.18;;;6.55;;
18399;SDS011;9326;49.468;11.008;2023-06-26T08:13:00;7.65;;;6.90;;
18399;SDS011;9326;49.468;11.008;2023-06-26T08:15:27;7.18;;;6.53;;
18399;SDS011;9326;49.468;11.008;2023-06-26T08:17:54;7.70;;;6.55;;
18399;SDS011;9326;49.468;11.008;2023-06-26T08:20:21;9.15;;;6.90;;
18399;SDS011;9326;49.468;11.008;2023-06-26T08:22:48;7.70;;;7.00;;
18399;SDS011;9326;49.468;11.008;2023-06-26T08:25:17;7.38;;;6.78;;
18399;SDS011;9326;49.468;11.008;2023-06-26T08:27:46;8.73;;;7.35;;
18399;SDS011;9326;49.468;11.008;2023-06-26T08:30:14;7.72;;;6.93;;
18399;SDS011;9326;49.468;11.008;2023-06-26T08:32:41;7.35;;;6.65;;
18399;SDS011;9326;49.468;11.008;2023-06-26T08:35:08;8.20;;;6.63;;
18399;SDS011;9326;49.468;11.008;2023-06-26T08:37:35;7.30;;;6.70;;
18399;SDS011;9326;49.468;11.008;2023-06-26T08:40:02;7.80;;;7.00;;
18399;SDS011;9326;49.468;11.008;2023-06-26T08:42:30;9.30;;;7.10;;
18399;SDS011;9326;49.468;11.008;2023-06-26T08:44:58;7.57;;;6.88;;
18399;SDS011;9326;49.468;11.008;2023-06-26T08:47:25;7.43;;;6.82;;
18399;SDS011;9326;49.468;11.008;2023-06-26T08:49:58;7.07;;;6.43;;
18399;SDS011;9326;49.468;11.008;2023-06-26T08:52:28;7.35;;;6.65;;
18399;SDS011;9326;49.468;11.008;2023-06-26T08:54:57;7.53;;;6.68;;
18399;SDS011;9326;49.468;11.008;2023-06-26T08:57:25;6.72;;;6.13;;
18399;SDS011;9326;49.468;11.008;2023-06-26T08:59:52;8.40;;;6.97;;
18399;SDS011;9326;49.468;11.008;2023-06-26T09:02:21;6.80;;;6.20;;
18399;SDS011;9326;49.468;11.008;2023-06-26T09:04:48;7.43;;;6.53;;
18399;SDS011;9326;49.468;11.008;2023-06-26T09:07:15;6.90;;;6.30;;
18399;SDS011;9326;49.468;11.008;2023-06-26T09:09:42;15.77;;;8.30;;
18399;SDS011;9326;49.468;11.008;2023-06-26T09:12:09;8.00;;;7.20;;
18399;SDS011;9326;49.468;11.008;2023-06-26T09:14:37;6.80;;;6.10;;
18399;SDS011;9326;49.468;11.008;2023-06-26T09:17:04;7.78;;;6.97;;
18399;SDS011;9326;49.468;11.008;2023-06-26T09:19:33;7.30;;;6.60;;
18399;SDS011;9326;49.468;11.008;2023-06-26T09:22:02;7.05;;;6.45;;
18399;SDS011;9326;49.468;11.008;2023-06-26T09:24:29;7.07;;;6.47;;
18399;SDS011;9326;49.468;11.008;2023-06-26T09:26:57;7.25;;;6.57;;
18399;SDS011;9326;49.468;11.008;2023-06-26T09:29:24;7.75;;;6.20;;
18399;SDS011;9326;49.468;11.008;2023-06-26T09:31:53;7.05;;;6.45;;
18399;SDS011;9326;49.468;11.008;2023-06-26T09:34:22;6.75;;;6.15;;
18399;SDS011;9326;49.468;11.008;2023-06-26T09:36:58;7.43;;;6.72;;
18399;SDS011;9326;49.468;11.008;2023-06-26T09:39:29;7.18;;;5.70;;
18399;SDS011;9326;49.468;11.008;2023-06-26T09:41:59;6.80;;;6.20;;
18399;SDS011;9326;49.468;11.008;2023-06-26T09:44:27;10.25;;;7.65;;
18399;SDS011;9326;49.468;11.008;2023-06-26T09:46:54;7.25;;;6.57;;
18399;SDS011;9326;49.468;11.008;2023-06-26T09:49:23;6.60;;;5.90;;
18399;SDS011;9326;49.468;11.008;2023-06-26T09:51:51;6.68;;;6.07;;
18399;SDS011;9326;49.468;11.008;2023-06-26T09:54:19;6.32;;;5.82;;
18399;SDS011;9326;49.468;11.008;2023-06-26T09:56:48;6.82;;;6.22;;
18399;SDS011;9326;49.468;11.008;2023-06-26T09:59:15;6.85;;;6.25;;
18399;SDS011;9326;49.468;11.008;2023-06-26T10:01:43;13.45;;;8.18;;
18399;SDS011;9326;49.468;11.008;2023-06-26T10:04:11;6.63;;;6.03;;
18399;SDS011;9326;49.468;11.008;2023-06-26T10:06:41;6.70;;;6.00;;
18399;SDS011;9326;49.468;11.008;2023-06-26T10:09:09;6.63;;;6.03;;
18399;SDS011;9326;49.468;11.008;2023-06-26T10:11:40;6.78;;;6.18;;
18399;SDS011;9326;49.468;11.008;2023-06-26T10:14:08;6.57;;;5.97;;
18399;SDS011;9326;49.468;11.008;2023-06-26T10:16:36;6.30;;;5.80;;
18399;SDS011;9326;49.468;11.008;2023-06-26T10:19:05;6.85;;;6.15;;
18399;SDS011;9326;49.468;11.008;2023-06-26T10:21:32;6.95;;;6.00;;
18399;SDS011;9326;49.468;11.008;2023-06-26T10:24:00;6.28;;;5.78;;
18399;SDS011;9326;49.468;11.008;2023-06-26T10:26:29;5.75;;;5.25;;
18399;SDS011;9326;49.468;11.008;2023-06-26T10:28:58;6.68;;;6.07;;
18399;SDS011;9326;49.468;11.008;2023-06-26T10:31:26;7.00;;;6.30;;
18399;SDS011;9326;49.468;11.008;2023-06-26T10:33:55;6.82;;;6.22;;
18399;SDS011;9326;49.468;11.008;2023-06-26T10:36:26;6.22;;;5.65;;
18399;SDS011;9326;49.468;11.008;2023-06-26T10:38:54;6.90;;;6.30;;
18399;SDS011;9326;49.468;11.008;2023-06-26T10:41:22;6.80;;;6.03;;
18399;SDS011;9326;49.468;11.008;2023-06-26T10:43:50;6.82;;;5.85;;
18399;SDS011;9326;49.468;11.008;2023-06-26T10:46:19;7.05;;;5.80;;
18399;SDS011;9326;49.468;11.008;2023-06-26T10:48:57;7.07;;;6.43;;
18399;SDS011;9326;49.468;11.008;2023-06-26T10:51:25;6.38;;;5.78;;
18399;SDS011;9326;49.468;11.008;2023-06-26T10:53:53;6.85;;;5.88;;
18399;SDS011;9326;49.468;11.008;2023-06-26T10:56:20;6.93;;;6.22;;
18399;SDS011;9326;49.468;11.008;2023-06-26T10:58:47;6.10;;;5.50;;
18399;SDS011;9326;49.468;11.008;2023-06-26T11:01:17;6.15;;;5.65;;
18399;SDS011;9326;49.468;11.008;2023-06-26T11:03:47;6.53;;;5.93;;
18399;SDS011;9326;49.468;11.008;2023-06-26T11:06:15;6.10;;;5.50;;
18399;SDS011;9326;49.468;11.008;2023-06-26T11:08:45;6.47;;;5.68;;
18399;SDS011;9326;49.468;11.008;2023-06-26T11:11:12;6.25;;;5.75;;
18399;SDS011;9326;49.468;11.008;2023-06-26T11:13:40;6.57;;;5.90;;
18399;SDS011;9326;49.468;11.008;2023-06-26T11:16:07;6.50;;;5.68;;
18399;SDS011;9326;49.468;11.008;2023-06-26T11:18:34;5.95;;;5.35;;
18399;SDS011;9326;49.468;11.008;2023-06-26T11:21:06;6.07;;;5.47;;
18399;SDS011;9326;49.468;11.008;2023-06-26T11:23:33;6.63;;;5.97;;
18399;SDS011;9326;49.468;11.008;2023-06-26T11:26:13;6.22;;;5.72;;
18399;SDS011;9326;49.468;11.008;2023-06-26T11:28:45;6.03;;;5.43;;
18399;SDS011;9326;49.468;11.008;2023-06-26T11:31:23;6.13;;;5.43;;
18399;SDS011;9326;49.468;11.008;2023-06-26T11:33:50;5.47;;;5.07;;
18399;SDS011;9326;49.468;11.008;2023-06-26T11:36:18;5.82;;;5.13;;
18399;SDS011;9326;49.468;11.008;2023-06-26T11:38:45;5.90;;;5.40;;
18399;SDS011;9326;49.468;11.008;2023-06-26T11:41:16;5.63;;;5.10;;
18399;SDS011;9326;49.468;11.008;2023-06-26T11:43:43;5.57;;;5.10;;
18399;SDS011;9326;49.468;11.008;2023-06-26T11:46:10;5.03;;;4.57;;
18399;SDS011;9326;49.468;11.008;2023-06-26T11:48:37;4.90;;;4.28;;
18399;SDS011;9326;49.468;11.008;2023-06-26T11:51:05;4.85;;;4.45;;
18399;SDS011;9326;49.468;11.008;2023-06-26T11:53:33;5.05;;;4.55;;
18399;SDS011;9326;49.468;11.008;2023-06-26T11:56:07;5.05;;;4.65;;
18399;SDS011;9326;49.468;11.008;2023-06-26T11:58:35;5.55;;;5.03;;
18399;SDS011;9326;49.468;11.008;2023-06-26T12:01:02;5.03;;;4.53;;
18399;SDS011;9326;49.468;11.008;2023-06-26T12:03:29;5.00;;;4.60;;
18399;SDS011;9326;49.468;11.008;2023-06-26T12:05:59;4.15;;;3.83;;
18399;SDS011;9326;49.468;11.008;2023-06-26T12:08:30;4.65;;;4.25;;
18399;SDS011;9326;49.468;11.008;2023-06-26T12:10:59;4.97;;;4.57;;
18399;SDS011;9326;49.468;11.008;2023-06-26T12:13:26;4.70;;;4.30;;
18399;SDS011;9326;49.468;11.008;2023-06-26T12:15:53;5.00;;;4.50;;
18399;SDS011;9326;49.468;11.008;2023-06-26T12:18:20;4.82;;;4.32;;
18399;SDS011;9326;49.468;11.008;2023-06-26T12:20:49;4.80;;;4.40;;
18399;SDS011;9326;49.468;11.008;2023-06-26T12:23:16;4.45;;;4.15;;
18399;SDS011;9326;49.468;11.008;2023-06-26T12:25:43;5.07;;;4.57;;
18399;SDS011;9326;49.468;11.008;2023-06-26T12:28:16;4.65;;;4.25;;
18399;SDS011;9326;49.468;11.008;2023-06-26T12:30:46;5.13;;;4.63;;
18399;SDS011;9326;49.468;11.008;2023-06-26T12:33:14;4.47;;;4.18;;
18399;SDS011;9326;49.468;11.008;2023-06-26T12:35:41;4.90;;;4.50;;
18399;SDS011;9326;49.468;11.008;2023-06-26T12:38:09;5.20;;;4.78;;
18399;SDS011;9326;49.468;11.008;2023-06-26T12:40:44;6.22;;;4.88;;
18399;SDS011;9326;49.468;11.008;2023-06-26T12:43:11;4.88;;;4.40;;
18399;SDS011;9326;49.468;11.008;2023-06-26T12:45:54;4.93;;;4.53;;
18399;SDS011;9326;49.468;11.008;2023-06-26T12:48:35;5.13;;;4.63;;
18399;SDS011;9326;49.468;11.008;2023-06-26T12:51:07;5.18;;;4.78;;
18399;SDS011;9326;49.468;11.008;2023-06-26T12:53:34;5.30;;;4.80;;
18399;SDS011;9326;49.468;11.008;2023-06-26T12:56:01;5.03;;;4.53;;
18399;SDS011;9326;49.468;11.008;2023-06-26T12:58:28;5.38;;;4.97;;
18399;SDS011;9326;49.468;11.008;2023-06-26T13:00:57;4.70;;;4.30;;
18399;SDS011;9326;49.468;11.008;2023-06-26T13:03:24;5.07;;;4.68;;
18399;SDS011;9326;49.468;11.008;2023-06-26T13:05:51;5.25;;;4.78;;
18399;SDS011;9326;49.468;11.008;2023-06-26T13:08:18;5.15;;;4.75;;
18399;SDS011;9326;49.468;11.008;2023-06-26T13:10:45;5.15;;;4.65;;
18399;SDS011;9326;49.468;11.008;2023-06-26T13:13:12;5.57;;;5.07;;
18399;SDS011;9326;49.468;11.008;2023-06-26T13:15:39;6.10;;;5.55;;
18399;SDS011;9326;49.468;11.008;2023-06-26T13:18:07;5.30;;;4.80;;
18399;SDS011;9326;49.468;11.008;2023-06-26T13:20:34;5.75;;;5.25;;
18399;SDS011;9326;49.468;11.008;2023-06-26T13:23:01;5.57;;;5.18;;
18399;SDS011;9326;49.468;11.008;2023-06-26T13:25:29;6.57;;;5.47;;
18399;SDS011;9326;49.468;11.008;2023-06-26T13:27:56;5.82;;;5.22;;
18399;SDS011;9326;49.468;11.008;2023-06-26T13:30:23;5.68;;;5.18;;
18399;SDS011;9326;49.468;11.008;2023-06-26T13:32:50;6.07;;;5.57;;
18399;SDS011;9326;49.468;11.008;2023-06-26T13:35:18;5.78;;;5.28;;
18399;SDS011;9326;49.468;11.008;2023-06-26T13:37:45;6.22;;;5.53;;
18399;SDS011;9326;49.468;11.008;2023-06-26T13:40:13;6.15;;;5.65;;
18399;SDS011;9326;49.468;11.008;2023-06-26T13:42:40;5.97;;;5.15;;
18399;SDS011;9326;49.468;11.008;2023-06-26T13:45:09;5.75;;;4.65;;
18399;SDS011;9326;49.468;11.008;2023-06-26T13:47:36;6.72;;;5.22;;
18399;SDS011;9326;49.468;11.008;2023-06-26T13:50:06;6.20;;;5.60;;
18399;SDS011;9326;49.468;11.008;2023-06-26T13:52:35;6.20;;;5.65;;
18399;SDS011;9326;49.468;11.008;2023-06-26T13:55:02;6.05;;;5.55;;
18399;SDS011;9326;49.468;11.008;2023-06-26T13:57:30;7.35;;;5.82;;
18399;SDS011;9326;49.468;11.008;2023-06-26T13:59:57;7.07;;;5.15;;
18399;SDS011;9326;49.468;11.008;2023-06-26T14:02:24;6.00;;;5.50;;
18399;SDS011;9326;49.468;11.008;2023-06-26T14:04:51;5.95;;;5.53;;
18399;SDS011;9326;49.468;11.008;2023-06-26T14:07:18;6.38;;;5.88;;
18399;SDS011;9326;49.468;11.008;2023-06-26T14:09:47;6.75;;;6.20;;
18399;SDS011;9326;49.468;11.008;2023-06-26T14:12:14;6.22;;;5.63;;
18399;SDS011;9326;49.468;11.008;2023-06-26T14:14:41;6.35;;;5.85;;
18399;SDS011;9326;49.468;11.008;2023-06-26T14:17:08;6.13;;;5.63;;
18399;SDS011;9326;49.468;11.008;2023-06-26T14:19:41;7.38;;;5.90;;
18399;SDS011;9326;49.468;11.008;2023-06-26T14:22:08;6.50;;;5.88;;
18399;SDS011;9326;49.468;11.008;2023-06-26T14:24:35;6.35;;;5.85;;
18399;SDS011;9326;49.468;11.008;2023-06-26T14:27:04;6.28;;;5.75;;
18399;SDS011;9326;49.468;11.008;2023-06-26T14:29:31;6.32;;;5.82;;
18399;SDS011;9326;49.468;11.008;2023-06-26T14:31:58;6.70;;;5.65;;
18399;SDS011;9326;49.468;11.008;2023-06-26T14:34:25;7.53;;;6.30;;
18399;SDS011;9326;49.468;11.008;2023-06-26T14:36:52;7.05;;;6.43;;
18399;SDS011;9326;49.468;11.008;2023-06-26T14:39:19;6.03;;;5.53;;
18399;SDS011;9326;49.468;11.008;2023-06-26T14:41:46;6.65;;;6.03;;
18399;SDS011;9326;49.468;11.008;2023-06-26T14:44:15;6.40;;;5.90;;
18399;SDS011;9326;49.468;11.008;2023-06-26T14:46:42;6.53;;;5.93;;
18399;SDS011;9326;49.468;11.008;2023-06-26T14:49:09;7.80;;;6.32;;
18399;SDS011;9326;49.468;11.008;2023-06-26T14:51:37;6.95;;;6.32;;
18399;SDS011;9326;49.468;11.008;2023-06-26T14:54:05;7.10;;;6.50;;
18399;SDS011;9326;49.468;11.008;2023-06-26T14:56:32;6.57;;;6.07;;
18399;SDS011;9326;49.468;11.008;2023-06-26T14:58:59;7.05;;;6.47;;
18399;SDS011;9326;49.468;11.008;2023-06-26T15:01:27;6.80;;;6.18;;
18399;SDS011;9326;49.468;11.008;2023-06-26T15:03:55;7.68;;;6.90;;
18399;SDS011;9326;49.468;11.008;2023-06-26T15:06:22;7.07;;;6.38;;
18399;SDS011;9326;49.468;11.008;2023-06-26T15:08:49;7.35;;;6.75;;
18399;SDS011;9326;49.468;11.008;2023-06-26T15:11:17;7.53;;;6.80;;
18399;SDS011;9326;49.468;11.008;2023-06-26T15:13:44;9.65;;;6.95;;
18399;SDS011;9326;49.468;11.008;2023-06-26T15:16:11;7.47;;;6.78;;
18399;SDS011;9326;49.468;11.008;2023-06-26T15:18:40;7.50;;;6.90;;
18399;SDS011;9326;49.468;11.008;2023-06-26T15:21:07;7.25;;;6.55;;
18399;SDS011;9326;49.468;11.008;2023-06-26T15:23:34;7.55;;;6.78;;
18399;SDS011;9326;49.468;11.008;2023-06-26T15:26:01;7.82;;;7.13;;
18399;SDS011;9326;49.468;11.008;2023-06-26T15:28:28;7.28;;;6.50;;
18399;SDS011;9326;49.468;11.008;2023-06-26T15:30:55;7.43;;;6.45;;
18399;SDS011;9326;49.468;11.008;2023-06-26T15:33:22;8.23;;;6.90;;
18399;SDS011;9326;49.468;11.008;2023-06-26T15:35:50;7.70;;;6.45;;
18399;SDS011;9326;49.468;11.008;2023-06-26T15:38:17;7.82;;;7.03;;
18399;SDS011;9326;49.468;11.008;2023-06-26T15:40:44;7.57;;;6.80;;
18399;SDS011;9326;49.468;11.008;2023-06-26T15:43:12;8.88;;;7.95;;
18399;SDS011;9326;49.468;11.008;2023-06-26T15:45:39;7.75;;;6.97;;
18399;SDS011;9326;49.468;11.008;2023-06-26T15:48:06;7.80;;;7.03;;
18399;SDS011;9326;49.468;11.008;2023-06-26T15:50:33;7.57;;;6.88;;
18399;SDS011;9326;49.468;11.008;2023-06-26T15:53:02;7.22;;;6.53;;
18399;SDS011;9326;49.468;11.008;2023-06-26T15:55:29;7.35;;;6.65;;
18399;SDS011;9326;49.468;11.008;2023-06-26T15:57:56;7.53;;;6.82;;
18399;SDS011;9326;49.468;11.008;2023-06-26T16:00:25;8.48;;;6.40;;
18399;SDS011;9326;49.468;11.008;2023-06-26T16:02:52;7.68;;;6.10;;
18399;SDS011;9326;49.468;11.008;2023-06-26T16:05:19;7.85;;;7.25;;
18399;SDS011;9326;49.468;11.008;2023-06-26T16:07:46;8.27;;;7.18;;
18399;SDS011;9326;49.468;11.008;2023-06-26T16:10:14;7.35;;;6.65;;
18399;SDS011;9326;49.468;11.008;2023-06-26T16:12:41;7.28;;;6.57;;
18399;SDS011;9326;49.468;11.008;2023-06-26T16:15:08;7.85;;;7.05;;
18399;SDS011;9326;49.468;11.008;2023-06-26T16:17:36;8.63;;;6.60;;
18399;SDS011;9326;49.468;11.008;2023-06-26T16:20:03;7.18;;;6.13;;
18399;SDS011;9326;49.468;11.008;2023-06-26T16:22:30;7.28;;;6.68;;
18399;SDS011;9326;49.468;11.008;2023-06-26T16:24:58;7.35;;;6.32;;
18399;SDS011;9326;49.468;11.008;2023-06-26T16:27:26;7.38;;;6.60;;
18399;SDS011;9326;49.468;11.008;2023-06-26T16:29:53;7.45;;;6.72;;
18399;SDS011;9326;49.468;11.008;2023-06-26T16:32:22;7.80;;;7.10;;
18399;SDS011;9326;49.468;11.008;2023-06-26T16:34:49;7.82;;;6.82;;
18399;SDS011;9326;49.468;11.008;2023-06-26T16:37:16;7.07;;;6.47;;
18399;SDS011;9326;49.468;11.008;2023-06-26T16:39:43;7.72;;;6.30;;
18399;SDS011;9326;49.468;11.008;2023-06-26T16:42:10;6.82;;;6.18;;
18399;SDS011;9326;49.468;11.008;2023-06-26T16:44:39;6.63;;;6.03;;
18399;SDS011;9326;49.468;11.008;2023-06-26T16:47:06;7.35;;;6.55;;
18399;SDS011;9326;49.468;11.008;2023-06-26T16:49:34;6.90;;;6.20;;
18399;SDS011;9326;49.468;11.008;2023-06-26T16:52:01;6.85;;;6.07;;
18399;SDS011;9326;49.468;11.008;2023-06-26T16:54:28;6.70;;;6.00;;
18399;SDS011;9326;49.468;11.008;2023-06-26T16:56:55;7.00;;;6.30;;
18399;SDS011;9326;49.468;11.008;2023-06-26T16:59:24;6.80;;;6.20;;
18399;SDS011;9326;49.468;11.008;2023-06-26T17:01:52;8.35;;;6.60;;
18399;SDS011;9326;49.468;11.008;2023-06-26T17:04:20;6.88;;;6.28;;
18399;SDS011;9326;49.468;11.008;2023-06-26T17:06:47;6.45;;;5.85;;
18399;SDS011;9326;49.468;11.008;2023-06-26T17:09:14;7.07;;;5.43;;
18399;SDS011;9326;49.468;11.008;2023-06-26T17:11:41;7.20;;;6.03;;
18399;SDS011;9326;49.468;11.008;2023-06-26T17:14:08;7.80;;;5.90;;
18399;SDS011;9326;49.468;11.008;2023-06-26T17:16:35;7.47;;;6.50;;
18399;SDS011;9326;49.468;11.008;2023-06-26T17:19:04;5.90;;;5.20;;
18399;SDS011;9326;49.468;11.008;2023-06-26T17:21:33;6.03;;;5.43;;
18399;SDS011;9326;49.468;11.008;2023-06-26T17:24:00;6.20;;;5.60;;
18399;SDS011;9326;49.468;11.008;2023-06-26T17:26:28;7.63;;;5.63;;
18399;SDS011;9326;49.468;11.008;2023-06-26T17:28:56;6.40;;;5.53;;
18399;SDS011;9326;49.468;11.008;2023-06-26T17:31:23;5.70;;;5.20;;
18399;SDS011;9326;49.468;11.008;2023-06-26T17:33:50;5.93;;;5.33;;
18399;SDS011;9326;49.468;11.008;2023-06-26T17:36:18;6.73;;;5.70;;
18399;SDS011;9326;49.468;11.008;2023-06-26T17:38:46;6.33;;;5.33;;
18399;SDS011;9326;49.468;11.008;2023-06-26T17:41:13;8.73;;;6.13;;
18399;SDS011;9326;49.468;11.008;2023-06-26T17:43:40;6.20;;;5.00;;
18399;SDS011;9326;49.468;11.008;2023-06-26T17:46:07;8.17;;;6.20;;
18399;SDS011;9326;49.468;11.008;2023-06-26T17:48:34;7.67;;;6.13;;
18399;SDS011;9326;49.468;11.008;2023-06-26T17:51:02;7.50;;;5.93;;
18399;SDS011;9326;49.468;11.008;2023-06-26T17:53:30;7.20;;;6.27;;
18399;SDS011;9326;49.468;11.008;2023-06-26T17:55:58;7.67;;;6.73;;
18399;SDS011;9326;49.468;11.008;2023-06-26T17:58:26;6.67;;;5.87;;
18399;SDS011;9326;49.468;11.008;2023-06-26T18:00:53;6.77;;;6.10;;
18399;SDS011;9326;49.468;11.008;2023-06-26T18:03:20;6.63;;;6.00;;
18399;SDS011;9326;49.468;11.008;2023-06-26T18:05:47;7.73;;;6.03;;
18399;SDS011;9326;49.468;11.008;2023-06-26T18:08:14;6.63;;;5.90;;
18399;SDS011;9326;49.468;11.008;2023-06-26T18:10:42;8.13;;;6.40;;
18399;SDS011;9326;49.468;11.008;2023-06-26T18:13:09;6.50;;;5.90;;
18399;SDS011;9326;49.468;11.008;2023-06-26T18:15:36;6.87;;;6.17;;
18399;SDS011;9326;49.468;11.008;2023-06-26T18:18:03;7.40;;;5.73;;
18399;SDS011;9326;49.468;11.008;2023-06-26T18:20:30;8.20;;;6.30;;
18399;SDS011;9326;49.468;11.008;2023-06-26T18:22:57;8.13;;;5.87;;
18399;SDS011;9326;49.468;11.008;2023-06-26T18:25:24;6.97;;;5.97;;
18399;SDS011;9326;49.468;11.008;2023-06-26T18:27:53;6.87;;;6.17;;
18399;SDS011;9326;49.468;11.008;2023-06-26T18:30:20;7.40;;;6.00;;
18399;SDS011;9326;49.468;11.008;2023-06-26T18:32:47;6.67;;;5.63;;
18399;SDS011;9326;49.468;11.008;2023-06-26T18:35:14;7.53;;;5.70;;
18399;SDS011;9326;49.468;11.008;2023-06-26T18:37:41;7.13;;;5.90;;
18399;SDS011;9326;49.468;11.008;2023-06-26T18:40:08;6.40;;;5.80;;
18399;SDS011;9326;49.468;11.008;2023-06-26T18:42:39;8.57;;;5.97;;
18399;SDS011;9326;49.468;11.008;2023-06-26T18:45:08;7.53;;;5.27;;
18399;SDS011;9326;49.468;11.008;2023-06-26T18:47:35;6.77;;;5.67;;
18399;SDS011;9326;49.468;11.008;2023-06-26T18:50:02;8.13;;;5.57;;
18399;SDS011;9326;49.468;11.008;2023-06-26T18:52:29;7.53;;;5.67;;
18399;SDS011;9326;49.468;11.008;2023-06-26T18:54:56;8.00;;;5.97;;
18399;SDS011;9326;49.468;11.008;2023-06-26T18:57:23;6.27;;;5.43;;
18399;SDS011;9326;49.468;11.008;2023-06-26T18:59:52;7.00;;;6.10;;
18399;SDS011;9326;49.468;11.008;2023-06-26T19:02:20;6.50;;;5.60;;
18399;SDS011;9326;49.468;11.008;2023-06-26T19:04:48;7.33;;;5.63;;
18399;SDS011;9326;49.468;11.008;2023-06-26T19:07:15;5.40;;;4.90;;
18399;SDS011;9326;49.468;11.008;2023-06-26T19:09:42;6.67;;;4.77;;
18399;SDS011;9326;49.468;11.008;2023-06-26T19:12:09;5.07;;;4.40;;
18399;SDS011;9326;49.468;11.008;2023-06-26T19:14:36;7.83;;;5.30;;
18399;SDS011;9326;49.468;11.008;2023-06-26T19:17:05;4.80;;;4.30;;
18399;SDS011;9326;49.468;11.008;2023-06-26T19:19:33;5.17;;;4.33;;
18399;SDS011;9326;49.468;11.008;2023-06-26T19:22:00;7.33;;;4.50;;
18399;SDS011;9326;49.468;11.008;2023-06-26T19:24:27;6.40;;;4.00;;
18399;SDS011;9326;49.468;11.008;2023-06-26T19:26:54;5.53;;;3.70;;
18399;SDS011;9326;49.468;11.008;2023-06-26T19:29:22;3.83;;;3.37;;
18399;SDS011;9326;49.468;11.008;2023-06-26T19:31:50;6.77;;;3.43;;
18399;SDS011;9326;49.468;11.008;2023-06-26T19:34:17;4.23;;;3.03;;
18399;SDS011;9326;49.468;11.008;2023-06-26T19:36:45;4.07;;;3.00;;
18399;SDS011;9326;49.468;11.008;2023-06-26T19:39:13;4.73;;;3.00;;
18399;SDS011;9326;49.468;11.008;2023-06-26T19:41:40;5.00;;;2.87;;
18399;SDS011;9326;49.468;11.008;2023-06-26T19:44:07;5.90;;;2.90;;
18399;SDS011;9326;49.468;11.008;2023-06-26T19:46:34;4.17;;;2.37;;
18399;SDS011;9326;49.468;11.008;2023-06-26T19:49:01;4.00;;;3.00;;
18399;SDS011;9326;49.468;11.008;2023-06-26T19:51:28;5.03;;;3.00;;